Time;durP1;ratioP1;P1;durP2;ratioP2;P2;SDS_P1;SDS_P2;PMS_P1;PMS_P2;Temp;Humidity;BMP_temperature;BMP_pressure;BME280_temperature;BME280_humidity;BME280_pressure;Samples;Min_cycle;Max_cycle;Signal;HPM_P1;HPM_P2
2022/09/29 00:01:48;;;;;;;7.55;3.08;;;7.70;99.90;;;;;;6017916;23;20472;-87
2022/09/29 00:04:14;;;;;;;7.10;3.00;;;7.60;99.90;;;;;;6017775;23;20329;-88
2022/09/29 00:06:40;;;;;;;7.35;2.92;;;7.60;99.90;;;;;;6065393;23;20030;-88
2022/09/29 00:09:05;;;;;;;8.23;3.03;;;8.40;99.90;;;;;;6041443;23;20014;-88
2022/09/29 00:11:31;;;;;;;7.05;2.88;;;8.00;99.90;;;;;;6041083;23;20014;-88
2022/09/29 00:13:57;;;;;;;7.25;3.05;;;7.60;99.90;;;;;;6065024;23;20061;-88
2022/09/29 00:16:23;;;;;;;9.07;3.45;;;8.60;99.90;;;;;;6017129;23;20014;-88
2022/09/29 00:18:49;;;;;;;7.80;3.15;;;7.50;99.90;;;;;;6065963;23;20453;-88
2022/09/29 00:21:18;;;;;;;7.20;2.90;;;7.40;99.90;;;;;;6018084;23;20011;-88
2022/09/29 00:23:45;;;;;;;7.93;3.35;;;7.40;99.90;;;;;;6040331;23;20021;-87
2022/09/29 00:26:17;;;;;;;8.13;3.60;;;7.40;99.90;;;;;;6041049;23;20343;-88
2022/09/29 00:28:51;;;;;;;9.07;4.18;;;7.40;99.90;;;;;;6041244;23;20340;-88
2022/09/29 00:31:17;;;;;;;9.95;4.10;;;7.40;99.90;;;;;;6038553;23;20455;-88
2022/09/29 00:33:43;;;;;;;10.13;4.88;;;7.60;99.90;;;;;;6066144;23;20070;-88
2022/09/29 00:36:11;;;;;;;8.60;4.40;;;8.00;99.90;;;;;;6065684;23;20014;-88
2022/09/29 00:38:38;;;;;;;10.57;5.68;;;8.20;99.90;;;;;;6041850;23;20099;-86
2022/09/29 00:41:05;;;;;;;10.55;5.75;;;7.50;99.90;;;;;;6065092;23;20344;-86
2022/09/29 00:44:25;;;;;;;9.75;5.57;;;7.50;99.90;;;;;;6065161;23;20058;-87
2022/09/29 00:46:56;;;;;;;9.75;5.63;;;7.60;99.90;;;;;;6003663;23;20046;-87
2022/09/29 00:49:50;;;;;;;10.15;5.63;;;8.50;99.90;;;;;;6041306;23;20015;-87
2022/09/29 00:52:29;;;;;;;10.57;5.20;;;7.60;99.90;;;;;;6041840;23;20025;-87
2022/09/29 00:55:03;;;;;;;10.70;5.85;;;7.60;99.90;;;;;;6040882;23;20014;-87
2022/09/29 00:57:35;;;;;;;11.43;6.20;;;7.60;99.90;;;;;;6042078;23;20323;-87
2022/09/29 01:00:07;;;;;;;9.68;5.53;;;8.10;99.90;;;;;;6040397;23;20025;-87
2022/09/29 01:02:43;;;;;;;9.20;4.80;;;7.60;99.90;;;;;;6066655;23;20388;-87
2022/09/29 01:05:15;;;;;;;9.35;5.15;;;7.50;99.90;;;;;;6040978;23;20010;-87
2022/09/29 01:07:44;;;;;;;10.63;5.32;;;7.80;99.90;;;;;;6042134;23;20010;-87
2022/09/29 01:10:12;;;;;;;10.15;5.10;;;7.50;99.90;;;;;;6040599;23;20030;-87
2022/09/29 01:12:38;;;;;;;11.55;6.10;;;8.10;99.90;;;;;;6064301;23;20018;-87
2022/09/29 01:15:04;;;;;;;10.48;5.45;;;7.50;99.90;;;;;;6065156;23;20381;-87
2022/09/29 01:17:30;;;;;;;12.43;6.15;;;7.50;99.90;;;;;;6041966;23;20014;-87
2022/09/29 01:20:11;;;;;;;10.48;6.05;;;9.00;99.90;;;;;;6017048;23;20049;-87
2022/09/29 01:22:59;;;;;;;11.40;5.90;;;7.50;99.90;;;;;;6041461;23;20018;-87
2022/09/29 01:25:34;;;;;;;11.93;5.85;;;7.50;99.90;;;;;;6041103;23;20036;-87
2022/09/29 01:28:23;;;;;;;10.68;6.30;;;7.50;99.90;;;;;;6065221;23;20018;-87
2022/09/29 01:30:48;;;;;;;11.65;5.90;;;7.60;99.90;;;;;;6041613;23;20041;-88
2022/09/29 01:33:33;;;;;;;13.57;7.00;;;7.60;99.90;;;;;;6042658;23;20440;-87
2022/09/29 01:36:23;;;;;;;11.32;6.82;;;7.60;99.90;;;;;;6066430;23;20368;-87
2022/09/29 01:38:57;;;;;;;12.38;7.03;;;7.60;99.90;;;;;;6044127;23;20011;-87
2022/09/29 01:41:37;;;;;;;12.13;6.38;;;7.60;99.90;;;;;;6040801;23;20046;-87
2022/09/29 01:44:28;;;;;;;11.30;6.97;;;7.50;99.90;;;;;;6067226;23;20093;-89
2022/09/29 01:47:15;;;;;;;11.75;7.03;;;7.50;99.90;;;;;;6040643;23;20515;-87
2022/09/29 01:49:45;;;;;;;13.73;7.13;;;7.50;99.90;;;;;;6042982;23;20020;-87
2022/09/29 01:52:16;;;;;;;13.60;7.15;;;7.60;99.90;;;;;;6042364;23;20020;-88
2022/09/29 01:54:50;;;;;;;12.13;7.55;;;7.50;99.90;;;;;;6041619;23;20101;-87
2022/09/29 01:57:38;;;;;;;11.48;7.53;;;7.60;99.90;;;;;;6042013;23;20523;-87
2022/09/29 02:00:09;;;;;;;12.50;7.55;;;8.90;99.90;;;;;;6042653;23;20026;-87
2022/09/29 02:02:49;;;;;;;13.05;7.90;;;7.50;99.90;;;;;;6066584;23;20433;-87
2022/09/29 02:05:32;;;;;;;13.20;7.80;;;7.60;99.90;;;;;;6066674;23;20053;-87
2022/09/29 02:08:08;;;;;;;12.80;8.00;;;7.60;99.90;;;;;;6043432;23;20023;-87
2022/09/29 02:10:39;;;;;;;12.40;7.25;;;7.60;99.90;;;;;;6066006;23;20074;-87
2022/09/29 02:13:08;;;;;;;12.98;8.10;;;9.00;99.90;;;;;;6042945;23;20018;-87
2022/09/29 02:15:37;;;;;;;11.98;7.50;;;8.70;99.90;;;;;;6066335;23;20137;-87
2022/09/29 02:18:20;;;;;;;14.32;7.72;;;7.50;99.90;;;;;;6042893;23;20019;-87
2022/09/29 02:20:47;;;;;;;12.75;7.43;;;7.50;99.90;;;;;;6041552;23;20010;-88
2022/09/29 02:23:13;;;;;;;12.15;7.43;;;8.10;99.90;;;;;;6041188;23;20137;-87
2022/09/29 02:25:39;;;;;;;13.73;8.20;;;8.00;99.90;;;;;;6018811;23;20459;-87
2022/09/29 02:28:06;;;;;;;13.00;7.53;;;7.50;99.90;;;;;;6043309;23;20050;-87
2022/09/29 02:30:33;;;;;;;11.80;7.32;;;7.40;99.90;;;;;;6043158;23;20029;-87
2022/09/29 02:32:59;;;;;;;12.90;7.88;;;7.40;99.90;;;;;;6065979;23;20022;-87
2022/09/29 02:35:43;;;;;;;13.00;7.75;;;7.40;99.90;;;;;;6017782;23;20055;-87
2022/09/29 02:38:41;;;;;;;12.93;7.90;;;8.00;99.90;;;;;;6043204;23;20039;-87
2022/09/29 02:41:54;;;;;;;13.48;8.25;;;7.40;99.90;;;;;;6035586;23;20495;-87
2022/09/29 02:45:03;;;;;;;13.25;7.63;;;7.40;99.90;;;;;;6040868;23;20051;-87
2022/09/29 02:47:31;;;;;;;14.05;7.90;;;7.40;99.90;;;;;;6042885;23;20024;-87
2022/09/29 02:50:37;;;;;;;15.57;8.75;;;7.90;99.90;;;;;;6066209;23;20022;-87
2022/09/29 02:53:20;;;;;;;13.18;8.25;;;7.40;99.90;;;;;;6042495;23;20069;-87
2022/09/29 02:55:56;;;;;;;13.75;8.27;;;7.30;99.90;;;;;;6065330;23;20049;-87
2022/09/29 02:58:31;;;;;;;12.75;7.65;;;7.30;99.90;;;;;;6064741;23;20464;-87
2022/09/29 03:00:58;;;;;;;13.63;8.55;;;7.30;99.90;;;;;;6042467;23;20053;-87
2022/09/29 03:03:24;;;;;;;13.32;8.55;;;7.30;99.90;;;;;;6041016;23;20170;-87
2022/09/29 03:05:50;;;;;;;14.27;8.95;;;7.80;99.90;;;;;;6042130;23;20590;-87
2022/09/29 03:08:16;;;;;;;14.38;8.80;;;7.30;99.90;;;;;;6064157;23;20029;-88
2022/09/29 03:10:42;;;;;;;12.95;8.52;;;7.30;99.90;;;;;;6042720;23;20201;-87
2022/09/29 03:13:07;;;;;;;12.85;8.43;;;7.30;99.90;;;;;;6042983;23;20021;-88
2022/09/29 03:15:33;;;;;;;13.60;8.52;;;7.30;99.90;;;;;;6065349;23;20089;-87
2022/09/29 03:17:59;;;;;;;13.48;8.63;;;7.30;99.90;;;;;;6040389;23;20021;-87
2022/09/29 03:20:25;;;;;;;14.18;9.20;;;8.60;99.90;;;;;;6066181;23;20643;-88
2022/09/29 03:22:55;;;;;;;13.43;8.10;;;7.30;99.90;;;;;;6042259;23;20336;-87
2022/09/29 03:25:22;;;;;;;15.13;9.27;;;7.30;99.90;;;;;;6041877;23;20024;-88
2022/09/29 03:27:49;;;;;;;14.48;9.60;;;7.30;99.90;;;;;;6066343;23;20021;-88
2022/09/29 03:30:15;;;;;;;13.25;8.27;;;8.50;99.90;;;;;;6018373;23;20018;-87
2022/09/29 03:32:42;;;;;;;17.33;9.63;;;8.10;99.90;;;;;;6041628;23;20010;-88
2022/09/29 03:35:08;;;;;;;13.30;8.43;;;7.20;99.90;;;;;;6065804;23;20388;-88
2022/09/29 03:37:34;;;;;;;14.77;9.50;;;7.20;99.90;;;;;;6042313;23;20018;-87
2022/09/29 03:40:01;;;;;;;16.10;9.98;;;8.40;99.90;;;;;;6042113;23;20010;-87
2022/09/29 03:42:27;;;;;;;16.85;10.50;;;7.20;99.90;;;;;;6019589;23;20089;-88
2022/09/29 03:44:53;;;;;;;14.90;9.95;;;7.40;99.90;;;;;;6066186;23;20400;-87
2022/09/29 03:47:19;;;;;;;17.95;11.00;;;7.10;99.90;;;;;;6065304;23;20356;-87
2022/09/29 03:49:45;;;;;;;16.15;10.35;;;7.20;99.90;;;;;;6041921;23;20025;-87
2022/09/29 03:52:11;;;;;;;17.63;10.52;;;7.10;99.90;;;;;;6042834;23;20061;-87
2022/09/29 03:54:37;;;;;;;15.00;9.68;;;8.10;99.90;;;;;;6041268;23;20026;-87
2022/09/29 03:57:03;;;;;;;15.57;9.65;;;7.00;99.90;;;;;;6041694;23;20470;-87
2022/09/29 03:59:28;;;;;;;15.65;9.93;;;7.00;99.90;;;;;;6040400;23;20011;-87
2022/09/29 04:01:55;;;;;;;17.27;10.25;;;8.20;99.90;;;;;;6017799;23;20010;-88
2022/09/29 04:04:21;;;;;;;16.92;9.50;;;7.00;99.90;;;;;;6041454;23;20093;-87
2022/09/29 04:06:46;;;;;;;14.45;9.20;;;7.00;99.90;;;;;;6041758;23;20460;-88
2022/09/29 04:09:12;;;;;;;17.80;10.27;;;7.00;99.90;;;;;;6040988;23;20448;-88
2022/09/29 04:11:38;;;;;;;15.85;9.20;;;7.10;99.90;;;;;;6042132;23;20488;-88
2022/09/29 04:14:04;;;;;;;14.90;8.98;;;7.00;99.90;;;;;;6065410;23;20496;-88
2022/09/29 04:16:29;;;;;;;14.32;8.73;;;7.00;99.90;;;;;;6041427;23;20014;-87
2022/09/29 04:18:55;;;;;;;14.70;9.23;;;7.00;99.90;;;;;;6017573;23;20328;-87
2022/09/29 04:21:21;;;;;;;14.68;9.20;;;8.40;99.90;;;;;;6042693;23;20166;-86
2022/09/29 04:23:47;;;;;;;14.13;9.32;;;7.00;99.90;;;;;;6018750;23;20018;-88
2022/09/29 04:26:13;;;;;;;14.98;9.35;;;7.00;99.90;;;;;;6018315;23;20025;-88
2022/09/29 04:28:39;;;;;;;14.57;9.23;;;7.00;99.90;;;;;;6041563;23;20070;-88
2022/09/29 04:31:05;;;;;;;14.48;9.30;;;7.00;99.90;;;;;;6041634;23;20024;-88
2022/09/29 04:33:31;;;;;;;16.27;10.70;;;7.00;99.90;;;;;;6018117;23;20015;-88
2022/09/29 04:35:57;;;;;;;16.35;10.32;;;7.00;99.90;;;;;;6041231;23;20074;-87
2022/09/29 04:38:24;;;;;;;14.43;10.02;;;7.80;99.90;;;;;;6040753;23;20014;-87
2022/09/29 04:40:49;;;;;;;14.48;9.50;;;7.00;99.90;;;;;;6041850;23;20089;-87
2022/09/29 04:43:15;;;;;;;15.35;9.65;;;6.90;99.90;;;;;;6065089;23;20049;-87
2022/09/29 04:45:41;;;;;;;14.10;8.65;;;6.90;99.90;;;;;;6065072;23;20053;-88
2022/09/29 04:48:07;;;;;;;16.65;9.68;;;7.40;99.90;;;;;;6040434;23;20432;-88
2022/09/29 04:50:33;;;;;;;14.38;9.27;;;6.90;99.90;;;;;;6040173;23;20018;-88
2022/09/29 04:52:59;;;;;;;13.93;8.98;;;6.80;99.90;;;;;;6064093;23;20018;-88
2022/09/29 04:55:25;;;;;;;12.85;8.60;;;7.50;99.90;;;;;;6041326;23;20021;-88
2022/09/29 04:57:51;;;;;;;14.13;9.27;;;7.70;99.90;;;;;;6017557;23;20093;-88
2022/09/29 05:00:17;;;;;;;14.73;9.43;;;8.20;99.90;;;;;;6041178;23;20097;-88
2022/09/29 05:02:43;;;;;;;15.75;10.10;;;6.80;99.90;;;;;;6039661;23;20371;-87
2022/09/29 05:05:11;;;;;;;15.13;9.35;;;6.80;99.90;;;;;;6043603;23;20056;-88
2022/09/29 05:07:41;;;;;;;14.90;9.95;;;6.80;99.90;;;;;;6043435;23;20460;-89
2022/09/29 05:10:08;;;;;;;16.08;9.80;;;7.70;99.90;;;;;;6067635;23;20018;-89
2022/09/29 05:12:34;;;;;;;15.30;10.00;;;6.80;99.90;;;;;;6044716;23;20463;-89
2022/09/29 05:15:00;;;;;;;17.80;10.20;;;6.80;99.90;;;;;;6066955;23;20014;-89
2022/09/29 05:17:26;;;;;;;16.20;10.27;;;6.80;99.90;;;;;;6042546;23;20025;-89
2022/09/29 05:19:51;;;;;;;15.40;9.95;;;6.80;99.90;;;;;;6043845;23;20010;-89
2022/09/29 05:22:23;;;;;;;15.95;10.38;;;6.90;99.90;;;;;;6019824;23;20476;-88
2022/09/29 05:24:52;;;;;;;19.58;11.25;;;6.70;99.90;;;;;;6042974;23;20018;-88
2022/09/29 05:27:18;;;;;;;15.73;9.98;;;6.70;99.90;;;;;;6068675;23;20049;-89
2022/09/29 05:29:43;;;;;;;16.08;10.65;;;6.70;99.90;;;;;;6020600;23;20014;-89
2022/09/29 05:32:09;;;;;;;17.77;11.23;;;7.40;99.90;;;;;;6042539;23;20022;-89
2022/09/29 05:34:35;;;;;;;16.75;10.63;;;;;;;;;;6042064;23;20014;-89
2022/09/29 05:37:01;;;;;;;20.25;12.30;;;6.70;99.90;;;;;;6043764;23;20022;-89
2022/09/29 05:39:26;;;;;;;19.42;13.02;;;6.70;99.90;;;;;;6044337;23;20017;-89
2022/09/29 05:41:52;;;;;;;18.77;12.68;;;6.70;99.90;;;;;;6044046;23;20467;-88
2022/09/29 05:44:18;;;;;;;17.95;12.68;;;7.00;99.90;;;;;;6039480;23;20066;-89
2022/09/29 05:46:43;;;;;;;18.27;12.32;;;6.70;99.90;;;;;;6043897;23;20022;-89
2022/09/29 05:49:09;;;;;;;18.10;12.55;;;7.10;99.90;;;;;;6044466;23;20049;-89
2022/09/29 05:51:35;;;;;;;16.95;11.52;;;8.00;99.90;;;;;;6045054;23;20019;-89
2022/09/29 05:54:01;;;;;;;17.98;11.85;;;6.70;99.90;;;;;;6043560;23;20022;-89
2022/09/29 05:56:27;;;;;;;17.38;11.07;;;6.70;99.90;;;;;;6044751;23;20015;-89
2022/09/29 05:58:53;;;;;;;18.13;10.98;;;6.70;99.90;;;;;;6044527;23;20018;-89
2022/09/29 06:01:24;;;;;;;17.88;11.07;;;8.00;99.90;;;;;;6044763;23;20070;-89
2022/09/29 06:03:55;;;;;;;19.95;12.40;;;7.90;99.90;;;;;;6067943;23;20081;-89
2022/09/29 06:06:25;;;;;;;18.63;11.75;;;6.80;99.90;;;;;;6043946;23;20042;-88
2022/09/29 06:08:51;;;;;;;16.65;10.88;;;6.80;99.90;;;;;;6067763;23;20077;-89
2022/09/29 06:11:19;;;;;;;17.15;11.52;;;6.80;99.90;;;;;;6044297;23;20014;-88
2022/09/29 06:13:47;;;;;;;17.70;11.55;;;6.80;99.90;;;;;;6043675;23;20389;-89
2022/09/29 06:16:15;;;;;;;17.88;11.55;;;6.90;99.90;;;;;;6039610;23;20057;-88
2022/09/29 06:18:41;;;;;;;17.75;11.63;;;6.90;99.90;;;;;;6040558;23;20488;-90
2022/09/29 06:21:09;;;;;;;15.70;10.52;;;6.90;99.90;;;;;;6066179;23;20137;-91
2022/09/29 06:23:36;;;;;;;15.98;10.43;;;7.00;99.90;;;;;;6067860;23;20021;-90
2022/09/29 06:26:04;;;;;;;18.35;11.95;;;7.00;99.90;;;;;;6067333;23;20018;-90
2022/09/29 06:28:31;;;;;;;15.38;10.90;;;7.00;99.90;;;;;;6038250;23;20035;-90
2022/09/29 06:31:02;;;;;;;15.18;10.52;;;7.00;99.90;;;;;;6014302;23;20023;-88
2022/09/29 06:33:29;;;;;;;15.35;10.45;;;7.90;99.90;;;;;;6014778;23;20110;-89
2022/09/29 06:38:40;;;;;;;17.92;10.73;;;7.10;99.90;;;;;;6019726;23;20516;-89
2022/09/29 06:41:07;;;;;;;16.13;11.05;;;8.00;99.90;;;;;;6015488;23;20473;-89
2022/09/29 06:43:34;;;;;;;15.82;10.80;;;8.40;99.90;;;;;;6037029;23;20023;-89
2022/09/29 06:46:00;;;;;;;18.40;11.15;;;7.90;99.90;;;;;;6037496;23;20015;-89
2022/09/29 06:48:25;;;;;;;15.07;10.63;;;8.00;99.90;;;;;;6061659;23;20563;-89
2022/09/29 06:50:51;;;;;;;18.25;10.63;;;7.20;99.90;;;;;;6037192;23;20026;-89
2022/09/29 06:53:17;;;;;;;14.00;10.10;;;8.00;99.90;;;;;;6013279;23;20023;-89
2022/09/29 06:55:43;;;;;;;16.77;10.55;;;8.30;99.90;;;;;;6015528;23;20445;-89
2022/09/29 06:58:09;;;;;;;16.02;10.50;;;7.30;99.90;;;;;;6014156;23;20495;-88
2022/09/29 07:00:36;;;;;;;14.55;10.05;;;7.30;99.90;;;;;;6013511;23;20011;-88
2022/09/29 07:03:02;;;;;;;15.75;11.02;;;8.90;99.90;;;;;;6037759;23;20019;-87
2022/09/29 07:05:28;;;;;;;15.02;10.23;;;7.40;99.90;;;;;;6061911;23;20086;-90
2022/09/29 07:07:54;;;;;;;15.77;10.75;;;7.40;99.90;;;;;;5991191;23;20011;-89
2022/09/29 07:10:20;;;;;;;17.75;10.77;;;7.40;99.90;;;;;;6036180;23;20058;-88
2022/09/29 07:12:45;;;;;;;16.58;11.00;;;7.50;99.90;;;;;;6036757;23;20462;-89
2022/09/29 07:15:12;;;;;;;16.20;11.23;;;7.50;99.90;;;;;;6014475;23;20023;-89
2022/09/29 07:17:38;;;;;;;18.38;12.23;;;7.60;99.90;;;;;;6037873;23;20476;-90
2022/09/29 07:20:04;;;;;;;16.30;11.43;;;7.70;99.90;;;;;;6036175;23;20037;-89
2022/09/29 07:22:30;;;;;;;18.20;12.70;;;7.80;99.90;;;;;;6038842;23;20118;-89
2022/09/29 07:24:55;;;;;;;17.73;12.25;;;7.90;99.90;;;;;;6062624;23;20049;-91
2022/09/29 07:27:23;;;;;;;17.50;12.15;;;8.30;99.90;;;;;;6038890;23;20229;-90
2022/09/29 07:29:55;;;;;;;22.15;13.70;;;8.50;99.90;;;;;;6014498;23;20157;-90
2022/09/29 07:32:20;;;;;;;21.05;13.57;;;8.20;99.90;;;;;;6014989;23;20018;-91
2022/09/29 07:34:46;;;;;;;18.70;13.00;;;8.70;99.90;;;;;;6015322;23;20488;-91
2022/09/29 07:37:12;;;;;;;19.88;12.52;;;9.50;99.90;;;;;;6062324;23;20006;-91
2022/09/29 07:39:38;;;;;;;17.08;12.00;;;8.40;99.90;;;;;;6062318;23;20050;-90
2022/09/29 07:42:04;;;;;;;17.00;11.68;;;8.80;99.90;;;;;;6064053;23;20007;-90
2022/09/29 07:44:31;;;;;;;17.65;12.02;;;8.50;99.90;;;;;;6039277;23;20360;-90
2022/09/29 07:46:59;;;;;;;19.00;12.88;;;8.60;99.90;;;;;;6062556;23;20015;-90
2022/09/29 07:49:25;;;;;;;18.80;12.75;;;;;;;;;;6014812;23;20103;-90
2022/09/29 07:52:01;;;;;;;17.15;12.15;;;8.80;99.90;;;;;;6037768;23;20074;-91
2022/09/29 07:54:30;;;;;;;20.42;12.48;;;8.90;99.90;;;;;;6017629;23;20055;-90
2022/09/29 07:56:56;;;;;;;17.10;12.07;;;8.80;99.90;;;;;;6039430;23;20018;-91
2022/09/29 07:59:22;;;;;;;17.20;11.98;;;9.10;99.90;;;;;;6038393;23;20038;-90
2022/09/29 08:01:59;;;;;;;17.35;12.35;;;9.10;99.90;;;;;;6035632;23;20019;-90
2022/09/29 08:04:27;;;;;;;17.45;11.75;;;9.30;99.90;;;;;;6060657;23;20051;-90
2022/09/29 08:06:56;;;;;;;17.58;11.93;;;10.40;99.90;;;;;;6015080;23;20050;-90
2022/09/29 08:09:23;;;;;;;18.65;12.20;;;;;;;;;;6061461;23;20054;-89
2022/09/29 08:11:49;;;;;;;18.40;12.88;;;9.50;99.90;;;;;;6036426;23;20655;-90
2022/09/29 08:14:14;;;;;;;16.85;11.77;;;9.60;99.90;;;;;;6037167;23;20306;-90
2022/09/29 08:16:40;;;;;;;17.23;11.90;;;9.70;99.90;;;;;;6014704;23;20022;-90
2022/09/29 08:19:19;;;;;;;17.35;11.60;;;9.80;99.90;;;;;;6014161;23;20074;-91
2022/09/29 08:21:48;;;;;;;17.55;12.55;;;9.90;99.90;;;;;;5993910;23;20019;-89
2022/09/29 08:24:16;;;;;;;18.00;11.60;;;10.00;99.90;;;;;;6038019;23;20019;-91
2022/09/29 08:26:42;;;;;;;19.40;11.93;;;10.10;99.90;;;;;;6062401;23;20025;-91
2022/09/29 08:29:09;;;;;;;16.50;11.23;;;10.20;99.90;;;;;;6043755;23;20105;-91
2022/09/29 08:31:39;;;;;;;17.42;12.75;;;10.30;99.90;;;;;;6044666;23;20106;-92
2022/09/29 08:34:05;;;;;;;18.38;12.10;;;10.40;99.90;;;;;;6067521;23;20026;-91
2022/09/29 08:36:31;;;;;;;17.80;12.38;;;10.50;99.90;;;;;;6044460;23;20086;-91
2022/09/29 08:38:57;;;;;;;17.08;12.32;;;10.60;99.90;;;;;;6044714;23;20014;-91
2022/09/29 08:41:28;;;;;;;16.52;11.05;;;10.70;99.90;;;;;;6045606;23;20285;-91
2022/09/29 08:43:59;;;;;;;18.42;12.85;;;10.80;99.90;;;;;;6068554;23;20467;-91
2022/09/29 08:46:31;;;;;;;19.27;13.27;;;10.90;99.90;;;;;;6043620;23;20097;-92
2022/09/29 08:49:03;;;;;;;18.93;12.53;;;11.10;99.90;;;;;;6045599;23;20097;-92
2022/09/29 08:51:38;;;;;;;19.75;13.25;;;11.20;99.90;;;;;;6045899;23;20014;-90
2022/09/29 08:54:14;;;;;;;17.77;12.07;;;11.40;99.90;;;;;;6067317;23;20447;-91
2022/09/29 08:56:39;;;;;;;15.88;11.52;;;11.40;99.90;;;;;;6045714;23;20466;-91
2022/09/29 08:59:09;;;;;;;17.00;11.77;;;11.50;99.90;;;;;;6044395;23;20046;-90
2022/09/29 09:01:53;;;;;;;16.08;11.27;;;11.60;99.90;;;;;;6044382;23;20085;-92
2022/09/29 09:04:55;;;;;;;16.40;10.68;;;11.80;99.90;;;;;;6068489;23;20018;-91
2022/09/29 09:07:30;;;;;;;15.23;10.32;;;11.90;99.90;;;;;;6008601;23;20475;-91
2022/09/29 09:10:13;;;;;;;15.80;8.90;;;11.80;99.90;;;;;;6044718;23;20022;-90
2022/09/29 09:13:11;;;;;;;14.93;8.90;;;12.10;99.90;;;;;;6045305;23;20057;-92
2022/09/29 09:15:49;;;;;;;13.80;8.07;;;12.20;99.90;;;;;;6045768;23;20018;-90
2022/09/29 09:18:24;;;;;;;12.95;7.38;;;12.30;99.90;;;;;;6067563;23;20014;-92
2022/09/29 09:20:55;;;;;;;12.00;7.38;;;12.40;99.90;;;;;;6044200;23;20010;-91
2022/09/29 09:23:30;;;;;;;11.43;6.18;;;12.40;99.90;;;;;;6045407;23;20393;-93
2022/09/29 09:26:01;;;;;;;11.88;6.20;;;12.50;99.90;;;;;;6070510;23;20015;-89
2022/09/29 09:28:41;;;;;;;10.25;5.55;;;12.60;99.90;;;;;;6068492;23;20018;-90
2022/09/29 09:31:18;;;;;;;12.15;5.60;;;12.70;99.90;;;;;;6047269;23;20018;-92
2022/09/29 09:33:56;;;;;;;9.60;5.10;;;12.70;99.90;;;;;;6072383;23;20047;-92
2022/09/29 09:36:42;;;;;;;9.70;5.18;;;12.80;99.90;;;;;;6095478;23;20015;-90
2022/09/29 09:39:16;;;;;;;11.10;5.32;;;12.90;99.90;;;;;;6046585;23;20015;-91
2022/09/29 09:41:47;;;;;;;10.63;4.85;;;13.00;99.90;;;;;;6044604;23;20061;-91
2022/09/29 09:44:28;;;;;;;9.27;4.63;;;13.00;99.90;;;;;;6044319;23;20021;-90
2022/09/29 09:47:03;;;;;;;9.75;4.70;;;13.00;99.90;;;;;;6043819;23;20408;-90
2022/09/29 09:49:35;;;;;;;9.00;4.13;;;13.10;99.90;;;;;;6042172;23;20018;-89
2022/09/29 09:52:12;;;;;;;8.10;4.05;;;13.20;99.90;;;;;;6043739;23;20018;-88
2022/09/29 09:54:48;;;;;;;9.68;3.50;;;13.20;99.90;;;;;;6043347;23;20023;-92
2022/09/29 09:57:43;;;;;;;7.47;3.42;;;13.20;99.90;;;;;;6043671;23;20436;-91
2022/09/29 10:00:15;;;;;;;7.88;3.33;;;13.20;99.90;;;;;;6043888;23;20018;-91
2022/09/29 10:02:48;;;;;;;7.90;3.55;;;13.30;99.90;;;;;;6045231;23;20025;-92
2022/09/29 10:05:30;;;;;;;9.02;3.10;;;13.30;99.90;;;;;;6045766;23;20018;-92
2022/09/29 10:07:56;;;;;;;8.63;3.28;;;13.40;99.90;;;;;;6043615;23;20029;-90
2022/09/29 10:10:25;;;;;;;7.57;3.47;;;13.50;99.90;;;;;;6020850;23;20010;-91
2022/09/29 10:12:55;;;;;;;7.03;2.97;;;13.60;99.90;;;;;;6044070;23;20026;-91
2022/09/29 10:15:26;;;;;;;6.72;2.72;;;13.70;99.90;;;;;;6043641;23;20113;-92
2022/09/29 10:18:10;;;;;;;8.32;3.55;;;13.70;99.90;;;;;;6043869;23;20015;-91
2022/09/29 10:20:37;;;;;;;7.43;3.20;;;13.80;99.90;;;;;;6041608;23;20046;-90
2022/09/29 10:23:27;;;;;;;7.53;3.10;;;14.00;99.90;;;;;;6067320;23;20456;-89
2022/09/29 10:25:59;;;;;;;6.28;2.47;;;14.00;99.90;;;;;;6044684;23;20319;-89
2022/09/29 10:28:28;;;;;;;6.38;2.40;;;14.10;99.90;;;;;;6044097;23;20022;-88
2022/09/29 10:30:54;;;;;;;6.90;2.38;;;14.20;99.90;;;;;;6067932;23;20023;-89
2022/09/29 10:33:23;;;;;;;8.63;2.55;;;14.20;99.90;;;;;;6067741;23;20025;-89
2022/09/29 10:36:01;;;;;;;7.00;2.30;;;14.20;99.90;;;;;;6044968;23;20050;-88
2022/09/29 10:38:27;;;;;;;6.28;1.90;;;14.20;99.90;;;;;;6068429;23;20010;-88
2022/09/29 10:40:56;;;;;;;4.65;1.88;;;14.10;99.90;;;;;;6044208;23;20158;-89
2022/09/29 10:43:44;;;;;;;5.90;2.20;;;14.10;99.90;;;;;;6043095;23;20017;-89
2022/09/29 10:46:45;;;;;;;6.75;2.15;;;14.20;99.90;;;;;;6043784;23;20021;-89
2022/09/29 10:49:16;;;;;;;6.32;2.10;;;14.30;99.90;;;;;;6044517;23;20049;-89
2022/09/29 10:51:54;;;;;;;6.75;2.25;;;14.40;99.90;;;;;;6043841;23;20336;-89
2022/09/29 10:54:24;;;;;;;6.63;2.30;;;14.60;99.90;;;;;;6043462;23;20037;-88
2022/09/29 10:56:51;;;;;;;6.32;2.30;;;14.70;99.90;;;;;;6068267;23;20046;-90
2022/09/29 10:59:18;;;;;;;6.85;2.25;;;14.80;99.90;;;;;;6044219;23;20046;-90
2022/09/29 11:01:49;;;;;;;6.63;2.20;;;14.90;99.90;;;;;;6041934;23;20010;-89
2022/09/29 11:04:33;;;;;;;7.07;2.25;;;15.00;99.90;;;;;;6066042;23;20069;-89
2022/09/29 11:07:09;;;;;;;7.22;2.10;;;15.20;99.90;;;;;;6065326;23;20015;-90
2022/09/29 11:09:41;;;;;;;6.25;2.28;;;15.30;99.90;;;;;;6066856;23;20410;-90
2022/09/29 11:12:27;;;;;;;6.78;2.10;;;15.40;99.90;;;;;;6066828;23;20045;-89
2022/09/29 11:14:53;;;;;;;5.50;1.88;;;15.50;99.90;;;;;;6043363;23;20026;-89
2022/09/29 11:17:29;;;;;;;6.20;1.90;;;15.60;99.90;;;;;;6044189;23;20019;-88
2022/09/29 11:20:01;;;;;;;5.32;2.10;;;15.70;99.90;;;;;;6043859;23;20045;-89
2022/09/29 11:22:45;;;;;;;6.30;2.10;;;15.80;99.90;;;;;;6043862;23;20022;-88
2022/09/29 11:25:46;;;;;;;6.88;2.20;;;15.90;99.90;;;;;;6067496;23;20440;-88
2022/09/29 11:29:03;;;;;;;8.90;2.95;;;16.00;99.90;;;;;;6043422;23;20064;-88
2022/09/29 11:31:42;;;;;;;4.45;1.70;;;16.10;99.90;;;;;;5903061;24;20687;-91
2022/09/29 11:34:11;;;;;;;6.63;2.40;;;16.30;99.90;;;;;;6041766;23;20014;-91
2022/09/29 11:36:59;;;;;;;7.15;2.10;;;16.40;99.90;;;;;;6044534;23;20372;-91
2022/09/29 11:39:48;;;;;;;8.82;2.17;;;16.50;99.90;;;;;;6045492;23;20132;-90
2022/09/29 11:42:35;;;;;;;6.80;2.00;;;16.60;99.90;;;;;;6043000;23;20480;-90
2022/09/29 11:45:02;;;;;;;5.90;1.95;;;16.70;99.90;;;;;;6043915;23;20077;-90
2022/09/29 11:48:22;;;;;;;5.88;1.70;;;16.70;99.90;;;;;;6045933;23;20085;-90
2022/09/29 11:50:50;;;;;;;7.25;2.10;;;16.80;99.90;;;;;;5904639;24;20027;-90
2022/09/29 11:53:51;;;;;;;5.03;1.80;;;16.80;99.90;;;;;;6037163;23;20022;-89
2022/09/29 11:56:54;;;;;;;5.38;1.90;;;16.50;99.90;;;;;;5970827;23;20061;-90
2022/09/29 11:59:31;;;;;;;4.78;1.58;;;16.20;99.90;;;;;;6045009;23;20010;-90
2022/09/29 12:02:15;;;;;;;4.38;1.75;;;15.90;99.90;;;;;;6069154;23;20014;-91
2022/09/29 12:05:04;;;;;;;5.50;1.80;;;15.60;99.90;;;;;;6068431;23;20026;-91
2022/09/29 12:08:00;;;;;;;5.05;1.50;;;15.40;99.90;;;;;;6046449;23;20018;-91
2022/09/29 12:10:42;;;;;;;4.68;1.67;;;15.00;99.90;;;;;;6044185;23;20042;-91
2022/09/29 12:13:19;;;;;;;5.63;1.67;;;14.90;99.90;;;;;;6070679;23;20357;-92
2022/09/29 12:15:53;;;;;;;3.28;1.40;;;14.70;99.90;;;;;;6045347;23;20014;-93
2022/09/29 12:18:25;;;;;;;4.00;1.67;;;14.60;99.90;;;;;;6068272;23;20340;-93
2022/09/29 12:20:53;;;;;;;5.15;1.55;;;14.50;99.90;;;;;;6045255;23;20021;-91
2022/09/29 12:23:23;;;;;;;4.35;1.30;;;14.50;99.90;;;;;;6045284;23;20468;-91
2022/09/29 12:25:57;;;;;;;3.92;1.58;;;14.40;99.90;;;;;;6044058;23;20057;-89
2022/09/29 12:28:42;;;;;;;7.97;1.77;;;14.40;99.90;;;;;;6044111;23;20312;-90
2022/09/29 12:31:25;;;;;;;5.95;1.83;;;14.50;99.90;;;;;;6069312;23;20094;-91
2022/09/29 12:34:19;;;;;;;5.07;1.70;;;14.60;99.90;;;;;;6069121;23;20097;-91
2022/09/29 12:37:17;;;;;;;4.53;1.70;;;15.00;99.90;;;;;;6044511;23;20411;-91
2022/09/29 12:39:59;;;;;;;4.78;1.60;;;15.30;99.90;;;;;;6067697;23;20110;-91
2022/09/29 12:42:43;;;;;;;4.78;1.95;;;15.60;99.90;;;;;;6068084;23;20014;-90
2022/09/29 12:45:27;;;;;;;3.10;1.50;;;15.60;99.90;;;;;;6044813;23;20021;-91
2022/09/29 12:48:11;;;;;;;3.00;1.30;;;15.50;99.90;;;;;;6067893;23;20344;-91
2022/09/29 12:51:19;;;;;;;3.33;1.40;;;15.30;99.90;;;;;;6044409;23;20022;-90
2022/09/29 12:53:58;;;;;;;4.72;1.40;;;15.10;99.90;;;;;;6036159;23;20019;-90
2022/09/29 12:56:31;;;;;;;2.90;1.33;;;15.00;99.90;;;;;;6042459;23;20037;-91
2022/09/29 12:59:12;;;;;;;3.58;1.40;;;14.90;99.90;;;;;;6045771;23;20448;-92
2022/09/29 13:01:38;;;;;;;2.92;1.20;;;14.80;99.90;;;;;;6069563;23;20014;-92
2022/09/29 13:04:28;;;;;;;4.32;1.40;;;14.70;99.90;;;;;;6045300;23;20313;-91
2022/09/29 13:07:18;;;;;;;5.80;1.30;;;14.60;99.90;;;;;;6044676;23;20085;-91
2022/09/29 13:10:08;;;;;;;1.65;1.05;;;14.50;99.90;;;;;;6068666;23;20159;-91
2022/09/29 13:13:18;;;;;;;3.42;1.00;;;14.50;99.90;;;;;;6067464;23;20050;-91
2022/09/29 13:16:16;;;;;;;1.75;0.93;;;14.40;99.90;;;;;;6030937;23;20025;-92